Time;durP1;ratioP1;P1;durP2;ratioP2;P2;SDS_P1;SDS_P2;PMS_P1;PMS_P2;Temp;Humidity;BMP_temperature;BMP_pressure;BME280_temperature;BME280_humidity;BME280_pressure;Samples;Min_cycle;Max_cycle;Signal;HPM_P1;HPM_P2
2022/01/19 00:01:25;;;;;;;38.80;12.48;;;-1.70;99.90;;;;;;5073629;28;20033;-83
2022/01/19 00:03:52;;;;;;;37.58;12.80;;;-1.70;99.90;;;;;;5073815;28;20033;-83
2022/01/19 00:06:18;;;;;;;34.60;13.95;;;-1.70;99.90;;;;;;5074936;28;20064;-83
2022/01/19 00:08:44;;;;;;;34.58;15.07;;;-1.70;99.90;;;;;;5067643;28;20059;-83
2022/01/19 00:11:10;;;;;;;44.83;14.95;;;-1.60;99.90;;;;;;5054895;28;20393;-84
2022/01/19 00:13:36;;;;;;;41.00;15.85;;;-1.70;99.90;;;;;;5053507;28;20021;-84
2022/01/19 00:16:02;;;;;;;48.08;17.98;;;-1.70;99.90;;;;;;5053483;28;20535;-83
2022/01/19 00:18:28;;;;;;;56.55;21.77;;;-1.60;99.90;;;;;;5053392;28;20021;-83
2022/01/19 00:20:54;;;;;;;45.40;17.30;;;-1.60;99.90;;;;;;5053160;28;20078;-83
2022/01/19 00:23:21;;;;;;;41.25;19.92;;;-1.60;99.90;;;;;;5054658;28;20071;-83
2022/01/19 00:25:48;;;;;;;58.50;21.63;;;-1.60;99.90;;;;;;5063246;28;20035;-83
2022/01/19 00:28:14;;;;;;;41.28;18.35;;;-1.60;99.90;;;;;;5054596;28;20021;-83
2022/01/19 00:30:40;;;;;;;47.42;22.08;;;-1.60;99.90;;;;;;5053468;28;20025;-83
2022/01/19 00:33:06;;;;;;;55.40;21.95;;;-1.60;99.90;;;;;;5057545;28;20028;-83
2022/01/19 00:35:35;;;;;;;48.53;20.73;;;-1.60;99.90;;;;;;5074358;28;20350;-83
2022/01/19 00:38:01;;;;;;;46.20;22.20;;;-1.60;99.90;;;;;;5073051;28;20111;-83
2022/01/19 00:40:27;;;;;;;58.22;24.60;;;-1.60;99.90;;;;;;5072944;28;20464;-83
2022/01/19 00:42:53;;;;;;;59.75;22.08;;;-1.60;99.90;;;;;;5072814;28;20082;-83
2022/01/19 00:45:19;;;;;;;55.17;23.55;;;-1.60;99.90;;;;;;5061487;28;20475;-83
2022/01/19 00:47:44;;;;;;;65.85;25.25;;;-1.60;99.90;;;;;;5050936;28;20478;-83
2022/01/19 00:50:13;;;;;;;59.80;23.25;;;-1.60;99.90;;;;;;5043049;28;20478;-83
2022/01/19 00:52:39;;;;;;;56.85;24.67;;;-1.60;99.90;;;;;;5044457;28;20082;-83
2022/01/19 00:55:08;;;;;;;64.63;27.58;;;-1.60;99.90;;;;;;5040498;28;20029;-83
2022/01/19 00:57:33;;;;;;;59.55;28.27;;;-1.60;99.90;;;;;;5043839;28;20022;-83
2022/01/19 00:59:59;;;;;;;60.08;25.83;;;-1.60;99.90;;;;;;5040351;28;20044;-83
2022/01/19 01:02:25;;;;;;;66.13;28.80;;;-1.60;99.90;;;;;;5044784;28;20047;-84
2022/01/19 01:04:50;;;;;;;74.78;31.05;;;-1.60;99.90;;;;;;5042349;28;20032;-83
2022/01/19 01:07:16;;;;;;;69.35;29.92;;;-1.60;99.90;;;;;;5040783;28;20029;-82
2022/01/19 01:09:43;;;;;;;86.43;34.05;;;-1.60;99.90;;;;;;5049593;28;20624;-83
2022/01/19 01:12:12;;;;;;;83.25;33.35;;;-1.60;99.90;;;;;;5052413;28;20532;-83
2022/01/19 01:20:09;;;;;;;78.30;34.72;;;-1.60;99.90;;;;;;5053811;28;20094;-83
2022/01/19 01:22:36;;;;;;;87.07;36.47;;;-1.70;99.90;;;;;;5052135;28;20190;-83
2022/01/19 01:25:02;;;;;;;81.22;37.05;;;-1.70;99.90;;;;;;5052037;28;20478;-83
2022/01/19 01:27:28;;;;;;;94.97;39.42;;;-1.60;99.90;;;;;;5055647;28;20550;-82
2022/01/19 01:29:53;;;;;;;87.90;37.17;;;-1.70;99.90;;;;;;5058742;28;20020;-83
2022/01/19 01:32:19;;;;;;;93.05;38.35;;;-1.70;99.90;;;;;;5059638;28;20021;-83
2022/01/19 01:34:45;;;;;;;77.65;35.85;;;-1.60;99.90;;;;;;5057913;28;20755;-82
2022/01/19 01:37:10;;;;;;;85.43;37.83;;;-1.70;99.90;;;;;;5062918;28;20044;-83
2022/01/19 01:39:36;;;;;;;85.55;35.15;;;-1.60;99.90;;;;;;5059238;28;20036;-83
2022/01/19 01:42:11;;;;;;;83.93;32.83;;;-1.60;99.90;;;;;;5063068;28;20028;-84
2022/01/19 01:44:39;;;;;;;87.15;36.63;;;-1.60;99.90;;;;;;5059083;28;20028;-83
2022/01/19 01:47:05;;;;;;;86.10;36.83;;;-1.60;99.90;;;;;;5065259;28;20009;-83
2022/01/19 01:53:16;;;;;;;87.43;34.15;;;-1.60;99.90;;;;;;5057018;28;20025;-83
2022/01/19 01:55:17;;;;;;;77.90;33.08;;;-1.60;99.90;;;;;;5063291;28;20039;-83
2022/01/19 01:57:42;;;;;;;78.53;32.38;;;-1.60;99.90;;;;;;5062197;28;20023;-83
2022/01/19 02:00:12;;;;;;;82.20;34.30;;;-1.60;99.90;;;;;;5056930;28;20413;-83
2022/01/19 02:02:39;;;;;;;86.45;37.28;;;-1.60;99.90;;;;;;5059162;28;20396;-83
2022/01/19 02:05:09;;;;;;;85.35;33.50;;;-1.60;99.90;;;;;;5060028;28;20025;-83
2022/01/19 02:16:10;;;;;;;73.45;31.63;;;-1.60;99.90;;;;;;5056080;28;20040;-83
2022/01/19 02:24:09;;;;;;;88.25;33.40;;;-1.60;99.90;;;;;;5033117;28;20087;-83
2022/01/19 02:30:10;;;;;;;77.25;33.03;;;-1.60;99.90;;;;;;5073031;28;20036;-83
2022/01/19 02:40:23;;;;;;;80.65;33.20;;;-1.60;99.90;;;;;;5060404;28;20478;-83
2022/01/19 02:43:05;;;;;;;71.30;32.20;;;-1.60;99.90;;;;;;5051027;28;20036;-83
2022/01/19 02:51:03;;;;;;;74.05;32.50;;;-1.60;99.90;;;;;;5056575;28;20516;-83
2022/01/19 02:53:28;;;;;;;73.25;31.40;;;-1.60;99.90;;;;;;5056359;28;20017;-83
2022/01/19 02:55:54;;;;;;;76.28;33.10;;;-1.60;99.90;;;;;;5054929;28;20113;-83
2022/01/19 02:58:22;;;;;;;68.00;33.08;;;-1.60;99.90;;;;;;5056265;28;20021;-83
2022/01/19 03:09:03;;;;;;;64.18;28.55;;;-1.60;99.90;;;;;;5065307;28;20027;-83
2022/01/19 03:11:29;;;;;;;62.28;26.55;;;-1.60;99.90;;;;;;5076001;28;20078;-83
2022/01/19 03:13:54;;;;;;;61.40;25.00;;;-1.50;99.90;;;;;;5075956;28;20028;-82
2022/01/19 03:16:21;;;;;;;73.72;29.48;;;-1.50;99.90;;;;;;5074559;28;20028;-82
2022/01/19 03:18:48;;;;;;;64.93;26.27;;;-1.50;99.90;;;;;;5074456;28;20591;-82
2022/01/19 03:21:14;;;;;;;58.30;25.83;;;-1.50;99.90;;;;;;5074508;28;20034;-82
2022/01/19 03:23:40;;;;;;;49.80;23.95;;;-1.50;99.90;;;;;;5074517;28;20100;-83
2022/01/19 03:26:06;;;;;;;58.15;23.40;;;-1.50;99.90;;;;;;5075699;28;20020;-82
2022/01/19 03:28:36;;;;;;;53.47;22.63;;;-1.50;99.90;;;;;;5074382;28;20103;-82
2022/01/19 03:31:03;;;;;;;56.65;24.02;;;-1.50;99.90;;;;;;5074302;28;20032;-83
2022/01/19 03:33:29;;;;;;;61.35;23.05;;;-1.40;99.90;;;;;;5074322;28;20017;-83
2022/01/19 03:35:54;;;;;;;46.25;22.52;;;-1.40;99.90;;;;;;5074244;28;20044;-83
2022/01/19 03:38:20;;;;;;;66.10;27.08;;;-1.40;99.90;;;;;;5074242;28;20025;-83
2022/01/19 03:40:45;;;;;;;65.65;25.45;;;-1.40;99.90;;;;;;5075225;28;20071;-82
2022/01/19 03:43:12;;;;;;;60.83;28.63;;;-1.40;99.90;;;;;;5074195;28;20374;-83
2022/01/19 03:45:38;;;;;;;60.85;27.02;;;-1.40;99.90;;;;;;5075380;28;20052;-83
2022/01/19 03:50:54;;;;;;;67.15;27.83;;;-1.40;99.90;;;;;;5067116;28;20027;-83
2022/01/19 03:53:19;;;;;;;64.07;26.05;;;-1.40;99.90;;;;;;5073941;28;20024;-83
2022/01/19 03:55:45;;;;;;;66.05;27.67;;;-1.40;99.90;;;;;;5074712;28;20048;-83
2022/01/19 03:58:10;;;;;;;56.92;27.02;;;-1.40;99.90;;;;;;5073889;28;20488;-83
2022/01/19 04:00:41;;;;;;;59.85;25.23;;;-1.40;99.90;;;;;;5073755;28;20028;-83
2022/01/19 04:03:09;;;;;;;62.17;26.17;;;-1.50;99.90;;;;;;5075084;28;20024;-83
2022/01/19 04:08:19;;;;;;;58.35;26.20;;;-1.40;99.90;;;;;;5075316;28;20035;-83
2022/01/19 04:10:45;;;;;;;57.05;28.27;;;-1.40;99.90;;;;;;5074787;28;20420;-83
2022/01/19 04:13:23;;;;;;;58.95;24.92;;;-1.50;99.90;;;;;;5073595;28;20503;-83
2022/01/19 04:15:50;;;;;;;57.00;28.33;;;-1.50;99.90;;;;;;5074713;28;20020;-83
2022/01/19 04:18:16;;;;;;;55.22;26.83;;;-1.40;99.90;;;;;;5073017;28;20023;-84
2022/01/19 04:20:43;;;;;;;55.85;26.35;;;-1.40;99.90;;;;;;5066796;28;20048;-84
2022/01/19 04:23:09;;;;;;;54.40;22.88;;;-1.50;99.90;;;;;;5053362;28;20017;-84
2022/01/19 04:25:35;;;;;;;55.60;23.63;;;-1.50;99.90;;;;;;5067540;28;20030;-83
2022/01/19 04:28:07;;;;;;;55.00;24.33;;;-1.40;99.90;;;;;;5074769;28;20028;-83
2022/01/19 04:30:33;;;;;;;51.45;22.73;;;-1.40;99.90;;;;;;5062114;28;20029;-83
2022/01/19 04:35:28;;;;;;;57.42;24.73;;;-1.40;99.90;;;;;;5060241;28;20492;-83
2022/01/19 05:04:52;;;;;;;58.70;26.88;;;-1.40;99.90;;;;;;5060943;28;20051;-83
2022/01/19 05:07:24;;;;;;;56.30;23.42;;;-1.40;99.90;;;;;;5055276;28;20433;-82
2022/01/19 05:15:01;;;;;;;48.83;23.40;;;-1.40;99.90;;;;;;5053938;28;20106;-83
2022/01/19 05:17:26;;;;;;;53.33;23.23;;;-1.40;99.90;;;;;;5053608;28;20040;-83
2022/01/19 05:19:52;;;;;;;48.17;23.35;;;-1.40;99.90;;;;;;5053573;28;20478;-83
2022/01/19 05:22:18;;;;;;;46.05;20.65;;;-1.40;99.90;;;;;;5067723;28;20095;-83
2022/01/19 05:24:43;;;;;;;49.97;21.88;;;-1.40;99.90;;;;;;5072160;28;20017;-82
2022/01/19 05:27:09;;;;;;;54.50;22.70;;;-1.40;99.90;;;;;;5073418;28;20028;-83
2022/01/19 05:29:35;;;;;;;57.25;24.65;;;-1.40;99.90;;;;;;5073279;28;20021;-83
2022/01/19 05:32:00;;;;;;;43.63;20.73;;;-1.40;99.90;;;;;;5072266;28;20017;-83
2022/01/19 05:34:26;;;;;;;45.85;20.33;;;-1.40;99.90;;;;;;5073322;28;20028;-83
2022/01/19 05:36:51;;;;;;;54.97;22.73;;;-1.40;99.90;;;;;;5071767;28;20119;-83
2022/01/19 05:39:17;;;;;;;38.95;20.02;;;-1.50;99.90;;;;;;5071941;28;20115;-83
2022/01/19 05:41:43;;;;;;;47.10;23.13;;;-1.50;99.90;;;;;;5073038;28;20070;-83
2022/01/19 05:44:08;;;;;;;54.28;21.23;;;-1.60;99.90;;;;;;5072172;28;20039;-83
2022/01/19 05:46:35;;;;;;;51.92;22.50;;;-1.60;99.90;;;;;;5072050;28;20408;-83
2022/01/19 05:49:01;;;;;;;51.15;21.80;;;-1.60;99.90;;;;;;5052697;28;20109;-83
2022/01/19 05:51:27;;;;;;;52.53;22.42;;;-1.60;99.90;;;;;;5051755;28;20056;-83
2022/01/19 05:53:53;;;;;;;50.28;21.63;;;-1.60;99.90;;;;;;5053310;28;20064;-83
2022/01/19 05:56:18;;;;;;;53.97;25.60;;;-1.60;99.90;;;;;;5051971;28;20028;-83
2022/01/19 05:58:44;;;;;;;61.28;24.45;;;-1.60;99.90;;;;;;5052891;28;20080;-83
2022/01/19 06:01:09;;;;;;;50.92;21.63;;;-1.60;99.90;;;;;;5051616;28;20470;-83
2022/01/19 06:03:35;;;;;;;51.42;25.10;;;-1.60;99.90;;;;;;5051578;28;20367;-82
2022/01/19 06:06:00;;;;;;;55.10;25.35;;;-1.60;99.90;;;;;;5052793;28;20099;-83
2022/01/19 06:10:55;;;;;;;46.00;21.08;;;-1.60;99.90;;;;;;5052936;28;20037;-83
2022/01/19 06:13:22;;;;;;;78.32;30.92;;;-1.60;99.90;;;;;;5051492;28;20013;-83
2022/01/19 06:15:48;;;;;;;64.25;27.45;;;-1.60;99.90;;;;;;5052704;28;20028;-83
2022/01/19 06:18:15;;;;;;;50.30;21.67;;;-1.60;99.90;;;;;;5051397;28;20135;-83
2022/01/19 06:20:42;;;;;;;54.67;22.85;;;-1.70;99.90;;;;;;5052538;28;20021;-83
2022/01/19 06:23:08;;;;;;;46.22;20.85;;;-1.70;99.90;;;;;;5052432;28;20025;-83
2022/01/19 06:25:33;;;;;;;52.33;23.10;;;-1.60;99.90;;;;;;5052609;28;20375;-83
2022/01/19 06:28:01;;;;;;;53.55;22.48;;;-1.60;99.90;;;;;;5051329;28;20444;-83
2022/01/19 06:30:27;;;;;;;52.63;23.42;;;-1.70;99.90;;;;;;5048173;28;20025;-83
2022/01/19 06:32:53;;;;;;;59.20;25.05;;;-1.70;99.90;;;;;;5042651;28;20036;-82
2022/01/19 06:35:19;;;;;;;55.10;24.80;;;-1.60;99.90;;;;;;5041923;28;20018;-83
2022/01/19 06:37:45;;;;;;;52.40;25.80;;;-1.60;99.90;;;;;;5040501;28;20025;-82
2022/01/19 06:40:12;;;;;;;59.38;25.17;;;-1.60;99.90;;;;;;5037828;28;20040;-81
2022/01/19 06:42:38;;;;;;;59.92;26.67;;;-1.60;99.90;;;;;;5031230;28;20113;-81
2022/01/19 06:45:05;;;;;;;52.03;24.17;;;-1.70;99.90;;;;;;5033458;28;20491;-81
2022/01/19 06:47:31;;;;;;;67.95;26.52;;;-1.70;99.90;;;;;;5056703;28;20386;-81
2022/01/19 06:49:57;;;;;;;64.72;28.45;;;-1.60;99.90;;;;;;5055664;28;20025;-81
2022/01/19 06:52:23;;;;;;;60.83;28.33;;;-1.60;99.90;;;;;;5061232;28;20029;-81
2022/01/19 06:54:49;;;;;;;57.40;26.98;;;-1.60;99.90;;;;;;5058146;28;20017;-81
2022/01/19 06:57:14;;;;;;;60.72;29.40;;;-1.60;99.90;;;;;;5057514;28;20100;-81
2022/01/19 06:59:40;;;;;;;68.63;28.17;;;-1.60;99.90;;;;;;5055643;28;20097;-82
2022/01/19 07:02:06;;;;;;;61.35;29.65;;;-1.60;99.90;;;;;;5053432;28;20374;-82
2022/01/19 07:04:32;;;;;;;59.40;27.33;;;-1.60;99.90;;;;;;5054049;28;20077;-82
2022/01/19 07:06:58;;;;;;;67.45;28.73;;;-1.60;99.90;;;;;;5055963;28;20096;-81
2022/01/19 07:09:23;;;;;;;61.25;30.45;;;-1.60;99.90;;;;;;5064953;28;20025;-82
2022/01/19 07:11:50;;;;;;;59.88;25.67;;;-1.60;99.90;;;;;;5057726;28;20382;-81
2022/01/19 07:14:17;;;;;;;52.75;24.95;;;-1.60;99.90;;;;;;5058681;28;20024;-81
2022/01/19 07:16:43;;;;;;;62.47;25.48;;;-1.50;99.90;;;;;;5056857;28;20386;-80
2022/01/19 07:19:09;;;;;;;54.22;24.00;;;-1.60;99.90;;;;;;5055093;28;20303;-80
2022/01/19 07:21:35;;;;;;;55.53;24.20;;;-1.50;99.90;;;;;;5053793;28;20021;-80
2022/01/19 07:24:00;;;;;;;53.58;22.65;;;-1.50;99.90;;;;;;5055891;28;20013;-81
2022/01/19 07:26:26;;;;;;;56.78;24.05;;;-1.60;99.90;;;;;;5054795;28;20155;-80
2022/01/19 07:28:52;;;;;;;53.10;22.08;;;-1.50;99.90;;;;;;5054699;28;20028;-80
2022/01/19 07:31:17;;;;;;;52.40;24.52;;;-1.50;99.90;;;;;;5054550;28;20037;-80
2022/01/19 07:33:43;;;;;;;59.42;25.08;;;-1.50;99.90;;;;;;5056855;28;20025;-80
2022/01/19 07:36:09;;;;;;;54.17;25.38;;;-1.50;99.90;;;;;;5054531;28;20085;-80
2022/01/19 07:38:34;;;;;;;51.92;24.63;;;-1.50;99.90;;;;;;5055337;28;20112;-80
2022/01/19 07:41:00;;;;;;;59.70;27.38;;;-1.50;99.90;;;;;;5054268;28;20033;-80
2022/01/19 07:43:26;;;;;;;64.90;27.50;;;-1.50;99.90;;;;;;5048182;28;20091;-82
2022/01/19 07:45:51;;;;;;;62.05;27.58;;;-1.40;99.90;;;;;;5056473;28;20074;-82
2022/01/19 07:48:17;;;;;;;59.50;29.10;;;-1.30;99.90;;;;;;5060893;28;20017;-81
2022/01/19 07:50:42;;;;;;;63.50;29.27;;;-1.10;99.90;;;;;;5059491;28;20052;-81
2022/01/19 07:53:08;;;;;;;66.25;28.58;;;-1.10;99.90;;;;;;5058358;28;20025;-82
2022/01/19 07:55:34;;;;;;;64.63;29.15;;;-1.20;99.90;;;;;;5053875;28;20395;-80
2022/01/19 07:58:01;;;;;;;66.80;30.05;;;-1.20;99.90;;;;;;5054951;28;20023;-80
2022/01/19 08:00:28;;;;;;;65.75;29.42;;;-1.20;99.90;;;;;;5055770;28;20047;-82
2022/01/19 08:02:53;;;;;;;65.78;30.83;;;-1.20;99.90;;;;;;5056543;28;20039;-80
2022/01/19 08:05:19;;;;;;;64.60;27.83;;;-1.30;99.90;;;;;;5056990;28;20028;-82
2022/01/19 08:07:45;;;;;;;61.97;26.90;;;-1.40;99.90;;;;;;5059862;28;20052;-83
2022/01/19 08:10:11;;;;;;;49.53;24.20;;;-1.30;99.90;;;;;;5059354;28;20079;-81
2022/01/19 08:12:37;;;;;;;55.65;26.25;;;-1.30;99.90;;;;;;5057443;28;20441;-83
2022/01/19 08:15:04;;;;;;;56.95;26.30;;;-1.30;99.90;;;;;;5058882;28;20033;-82
2022/01/19 08:17:30;;;;;;;58.17;26.35;;;-1.30;99.90;;;;;;5056704;28;20029;-82
2022/01/19 08:23:17;;;;;;;62.83;25.45;;;-1.20;99.90;;;;;;5057133;28;20039;-82
2022/01/19 08:25:43;;;;;;;62.88;29.00;;;-1.30;99.90;;;;;;5057636;28;20025;-83
2022/01/19 08:28:09;;;;;;;64.53;28.80;;;-1.10;99.90;;;;;;5059473;28;20047;-81
2022/01/19 08:30:34;;;;;;;59.88;30.48;;;-1.00;99.90;;;;;;5061083;28;20022;-82
2022/01/19 08:33:00;;;;;;;73.07;29.70;;;-1.10;99.90;;;;;;5062971;28;20488;-82
2022/01/19 08:35:25;;;;;;;68.93;27.00;;;-1.20;99.90;;;;;;5062275;28;20029;-81
2022/01/19 08:37:51;;;;;;;60.85;26.50;;;-1.30;99.90;;;;;;5054810;28;20429;-82
2022/01/19 17:07:23;;;;;;;263.00;116.25;;;-1.70;99.90;;;;;;5046281;28;20474;-79
2022/01/19 17:09:48;;;;;;;373.90;148.02;;;-1.80;99.90;;;;;;5042443;28;20052;-80
2022/01/19 17:12:19;;;;;;;383.25;153.27;;;-1.80;99.90;;;;;;5054632;28;20035;-78
2022/01/19 17:14:45;;;;;;;356.52;139.45;;;-1.80;99.90;;;;;;5046531;28;20029;-78
2022/01/19 17:17:24;;;;;;;317.05;125.78;;;-1.80;99.90;;;;;;5054558;28;20466;-79
2022/01/19 17:19:50;;;;;;;288.55;124.72;;;-1.90;99.90;;;;;;5056704;28;20021;-80
2022/01/19 17:22:21;;;;;;;248.00;100.35;;;-1.90;99.90;;;;;;5045314;28;20053;-80
2022/01/19 17:24:48;;;;;;;193.55;82.78;;;-2.00;99.90;;;;;;5046325;28;20075;-79
2022/01/19 17:27:14;;;;;;;179.00;76.20;;;-2.00;99.90;;;;;;5058311;28;20043;-79
2022/01/19 17:29:40;;;;;;;234.18;91.50;;;-2.10;99.90;;;;;;5045492;28;20036;-79
2022/01/19 17:32:06;;;;;;;251.00;98.72;;;-2.10;99.90;;;;;;5053218;28;20024;-79
2022/01/19 17:34:33;;;;;;;197.52;83.80;;;-2.10;99.90;;;;;;5047400;28;20037;-79
2022/01/19 17:36:59;;;;;;;115.72;50.33;;;-2.20;99.90;;;;;;5047127;28;20033;-79
2022/01/19 17:39:26;;;;;;;107.60;44.83;;;-2.30;99.90;;;;;;5057475;28;20400;-80
2022/01/19 17:41:53;;;;;;;112.93;46.33;;;-2.30;99.90;;;;;;5042548;28;20040;-79
2022/01/19 17:44:20;;;;;;;110.00;43.97;;;-2.30;99.90;;;;;;5055664;28;20056;-79
2022/01/19 17:49:31;;;;;;;133.55;63.67;;;-2.40;99.90;;;;;;5052675;28;20274;-79
2022/01/19 17:51:58;;;;;;;110.63;55.67;;;-2.40;99.90;;;;;;5043103;28;20103;-79
2022/01/19 17:54:24;;;;;;;125.28;55.72;;;-2.40;99.90;;;;;;5046508;28;20028;-79
2022/01/19 17:56:50;;;;;;;95.57;48.38;;;-2.40;99.90;;;;;;5046065;28;20103;-78
2022/01/19 17:59:18;;;;;;;91.80;45.97;;;-2.50;99.90;;;;;;5052980;28;20123;-79
2022/01/19 18:01:44;;;;;;;94.75;46.63;;;-2.50;99.90;;;;;;5053342;28;20033;-79
2022/01/19 18:04:10;;;;;;;127.05;66.75;;;-2.50;99.90;;;;;;5056432;28;20094;-79
2022/01/19 18:06:36;;;;;;;178.18;84.90;;;-2.50;99.90;;;;;;5052851;28;20438;-79
2022/01/19 18:09:02;;;;;;;168.10;81.15;;;-2.50;99.90;;;;;;5044513;28;20128;-79
2022/01/19 18:11:28;;;;;;;138.95;65.00;;;-2.50;99.90;;;;;;5044216;28;20040;-79
2022/01/19 18:13:55;;;;;;;158.63;75.75;;;-2.50;99.90;;;;;;5045815;28;20405;-83
2022/01/19 18:16:22;;;;;;;147.52;67.93;;;-2.50;99.90;;;;;;5057724;28;20024;-79
2022/01/19 18:18:47;;;;;;;145.70;68.28;;;-2.50;99.90;;;;;;5049339;28;20059;-79
2022/01/19 18:21:13;;;;;;;207.27;102.10;;;-2.50;99.90;;;;;;5051380;28;20481;-79
2022/01/19 18:23:40;;;;;;;188.00;87.97;;;-2.60;99.90;;;;;;5045045;28;20033;-79
2022/01/19 18:26:06;;;;;;;165.88;82.65;;;-2.70;99.90;;;;;;5042407;28;20086;-79
2022/01/19 18:28:32;;;;;;;225.45;89.45;;;-2.80;99.90;;;;;;5055130;28;20416;-79
2022/01/19 18:30:59;;;;;;;219.57;98.10;;;-2.80;99.90;;;;;;5058921;28;20025;-80
2022/01/19 18:33:25;;;;;;;211.57;95.72;;;-2.80;99.90;;;;;;5061729;28;20039;-80
2022/01/19 18:35:51;;;;;;;179.80;82.97;;;-2.80;99.90;;;;;;5059364;28;20028;-79
2022/01/19 18:38:22;;;;;;;188.88;80.05;;;-2.90;99.90;;;;;;5053247;28;20150;-80
2022/01/19 18:40:47;;;;;;;187.98;85.03;;;-2.90;99.90;;;;;;5053730;28;20470;-80
2022/01/19 18:43:13;;;;;;;253.27;102.80;;;-3.00;99.90;;;;;;5058376;28;20036;-80
2022/01/19 18:45:39;;;;;;;213.68;93.43;;;-3.00;99.90;;;;;;5053720;28;20036;-80
2022/01/19 18:48:05;;;;;;;180.48;80.82;;;-3.00;99.90;;;;;;5046931;28;20029;-80
2022/01/19 18:50:30;;;;;;;164.68;75.00;;;-3.10;99.90;;;;;;5053042;28;20036;-80
2022/01/19 18:52:56;;;;;;;211.20;93.95;;;-3.10;99.90;;;;;;5051205;28;20155;-79
2022/01/19 18:55:24;;;;;;;218.32;93.30;;;-3.20;99.90;;;;;;5047077;28;20036;-79
2022/01/19 18:57:50;;;;;;;313.15;131.00;;;-3.20;99.90;;;;;;5049303;28;20017;-79
2022/01/19 19:00:19;;;;;;;230.75;93.55;;;-3.20;99.90;;;;;;5047215;28;20044;-78
2022/01/19 19:02:48;;;;;;;212.50;89.38;;;-3.20;99.90;;;;;;5047211;28;20036;-78
2022/01/19 19:05:19;;;;;;;176.75;75.95;;;-3.20;99.90;;;;;;5044633;28;20390;-79
2022/01/19 19:07:45;;;;;;;200.13;84.63;;;-3.20;99.90;;;;;;5046925;28;20044;-79
2022/01/19 19:10:23;;;;;;;201.57;90.97;;;-3.30;99.90;;;;;;5037675;28;20416;-78
2022/01/19 19:12:49;;;;;;;199.75;91.60;;;-3.30;99.90;;;;;;5048136;28;20414;-79
2022/01/19 19:15:16;;;;;;;158.82;72.18;;;-3.30;99.90;;;;;;5049567;28;20041;-79
2022/01/19 19:17:43;;;;;;;154.93;74.35;;;-3.40;99.90;;;;;;5049645;28;20063;-79
2022/01/19 19:20:10;;;;;;;310.77;124.78;;;-3.40;99.90;;;;;;5047493;28;20060;-80
2022/01/19 19:22:38;;;;;;;322.52;132.40;;;-3.40;99.90;;;;;;5049603;28;20045;-79
2022/01/19 19:25:04;;;;;;;217.13;90.40;;;-3.40;99.90;;;;;;5048869;28;20079;-80
2022/01/19 19:27:30;;;;;;;189.73;83.68;;;-3.40;99.90;;;;;;5051833;28;20025;-80
2022/01/19 19:29:56;;;;;;;189.88;81.35;;;-3.50;99.90;;;;;;5053247;28;20540;-80
2022/01/19 19:32:23;;;;;;;315.35;121.40;;;-3.50;99.90;;;;;;5039704;28;20033;-80
2022/01/19 19:34:49;;;;;;;632.85;302.20;;;-3.50;99.90;;;;;;5045875;28;20088;-80
2022/01/19 19:37:15;;;;;;;1032.40;482.77;;;-3.60;99.90;;;;;;5040378;28;20523;-80
2022/01/19 19:39:42;;;;;;;725.55;355.23;;;-3.60;99.90;;;;;;5050830;28;20072;-79
2022/01/19 19:42:08;;;;;;;659.08;308.13;;;-3.60;99.90;;;;;;5051099;28;20115;-79
2022/01/19 19:44:34;;;;;;;405.55;161.73;;;-3.60;99.90;;;;;;5052041;28;20668;-79
2022/01/19 19:47:00;;;;;;;580.00;248.90;;;-3.70;99.90;;;;;;5039593;28;20482;-80
2022/01/19 19:49:25;;;;;;;257.42;96.70;;;-3.70;99.90;;;;;;5042669;28;20082;-79
2022/01/19 19:51:51;;;;;;;129.10;59.55;;;-3.80;99.90;;;;;;5049609;28;20025;-82
2022/01/19 19:54:17;;;;;;;140.85;62.30;;;-3.80;99.90;;;;;;5048154;28;20032;-80
2022/01/19 19:56:43;;;;;;;153.82;70.45;;;-3.90;99.90;;;;;;5052575;28;20037;-79
2022/01/19 19:59:09;;;;;;;196.18;79.18;;;-3.90;99.90;;;;;;5048017;28;20095;-79
2022/01/19 20:01:37;;;;;;;244.55;95.50;;;-3.90;99.90;;;;;;5049545;28;20490;-79
2022/01/19 20:04:04;;;;;;;210.40;92.25;;;-3.90;99.90;;;;;;5047169;28;20478;-80
2022/01/19 20:06:29;;;;;;;268.00;109.50;;;-3.90;99.90;;;;;;5046367;28;20046;-80
2022/01/19 20:08:56;;;;;;;299.42;115.18;;;-3.90;99.90;;;;;;5056087;28;20033;-80
2022/01/19 20:11:23;;;;;;;336.00;120.97;;;-3.90;99.90;;;;;;5044517;28;20059;-79
2022/01/19 20:13:49;;;;;;;343.13;114.40;;;-3.90;99.90;;;;;;5049734;28;20032;-80
2022/01/19 20:16:19;;;;;;;373.23;124.97;;;-4.00;99.90;;;;;;5059319;28;20183;-80
2022/01/19 20:18:48;;;;;;;270.98;102.50;;;-4.00;99.90;;;;;;5042731;28;20025;-79
2022/01/19 20:21:15;;;;;;;276.33;105.72;;;-4.10;99.90;;;;;;5047859;28;20029;-79
2022/01/19 20:23:41;;;;;;;315.17;115.85;;;-4.10;99.90;;;;;;5056373;28;20085;-80
2022/01/19 20:26:07;;;;;;;313.48;112.43;;;-4.20;99.90;;;;;;5049802;28;20128;-79
2022/01/19 20:28:33;;;;;;;193.73;74.53;;;-4.30;99.90;;;;;;5048955;28;20128;-81
2022/01/19 20:30:58;;;;;;;339.98;117.78;;;-4.30;99.90;;;;;;5046848;28;20036;-79
2022/01/19 20:33:24;;;;;;;245.68;77.05;;;-4.40;99.90;;;;;;5044486;28;20486;-80
2022/01/19 20:35:50;;;;;;;211.75;69.45;;;-4.50;99.90;;;;;;5057768;28;20068;-79
2022/01/19 20:38:16;;;;;;;156.50;52.90;;;-4.50;99.90;;;;;;5059216;28;20037;-79
2022/01/19 20:40:42;;;;;;;130.38;46.05;;;-4.50;99.90;;;;;;5053354;28;20028;-80
2022/01/19 20:43:08;;;;;;;129.38;49.33;;;-4.40;99.90;;;;;;5061008;28;20025;-79
2022/01/19 20:45:35;;;;;;;116.60;48.00;;;-4.20;99.90;;;;;;5053067;28;20028;-79
2022/01/19 20:48:02;;;;;;;149.02;52.22;;;-4.10;99.90;;;;;;5048375;28;20025;-79
2022/01/19 20:50:27;;;;;;;144.20;52.78;;;-3.90;99.90;;;;;;5062301;28;20037;-80
2022/01/19 20:52:53;;;;;;;126.38;50.42;;;-3.70;99.90;;;;;;5046052;28;20056;-80
2022/01/19 20:55:19;;;;;;;134.85;53.13;;;-3.60;99.90;;;;;;5052716;28;20043;-80
2022/01/19 20:57:45;;;;;;;139.35;51.78;;;-3.50;99.90;;;;;;5061156;28;20025;-79
2022/01/19 21:00:16;;;;;;;130.45;49.85;;;-3.40;99.90;;;;;;5050274;28;20127;-80
2022/01/19 21:02:42;;;;;;;115.75;47.17;;;-3.40;99.90;;;;;;5052964;28;20119;-80
2022/01/19 21:05:10;;;;;;;116.55;50.33;;;-3.30;99.90;;;;;;5061228;28;20028;-80
2022/01/19 21:07:36;;;;;;;96.10;41.78;;;-3.30;99.90;;;;;;5050812;28;20040;-81
2022/01/19 21:10:02;;;;;;;111.00;46.72;;;-3.20;99.90;;;;;;5053626;28;20040;-80
2022/01/19 21:12:28;;;;;;;136.18;53.40;;;-3.20;99.90;;;;;;5062168;28;20111;-80
2022/01/19 21:14:53;;;;;;;114.93;48.00;;;-3.20;99.90;;;;;;5051080;28;20526;-81
2022/01/19 21:17:19;;;;;;;96.22;45.35;;;-3.20;99.90;;;;;;5044983;28;20041;-80
2022/01/19 21:19:46;;;;;;;107.30;45.13;;;-3.10;99.90;;;;;;5050775;28;20025;-80
2022/01/19 21:22:11;;;;;;;86.75;38.92;;;-3.10;99.90;;;;;;5051233;28;20052;-80
2022/01/19 21:24:37;;;;;;;92.07;40.30;;;-3.10;99.90;;;;;;5047731;28;20037;-80
2022/01/19 21:27:02;;;;;;;107.10;42.13;;;-3.10;99.90;;;;;;5057368;28;20111;-81
2022/01/19 21:29:28;;;;;;;83.43;38.28;;;-3.10;99.90;;;;;;5050349;28;20037;-80
2022/01/19 21:31:54;;;;;;;88.22;38.22;;;-3.10;99.90;;;;;;5065253;28;20029;-81
2022/01/19 21:34:20;;;;;;;77.15;34.88;;;-3.00;99.90;;;;;;5053011;28;20029;-81
2022/01/19 21:36:47;;;;;;;73.03;35.20;;;-2.90;99.90;;;;;;5050510;28;20052;-81
2022/01/19 21:39:16;;;;;;;84.57;35.72;;;-2.90;99.90;;;;;;5045687;28;20029;-80
2022/01/19 21:41:42;;;;;;;71.80;30.48;;;-2.90;99.90;;;;;;5043181;28;20045;-80
2022/01/19 21:44:07;;;;;;;67.50;29.10;;;-2.80;99.90;;;;;;5052867;28;20028;-80
2022/01/19 21:46:33;;;;;;;61.83;27.20;;;-2.80;99.90;;;;;;5048251;28;20029;-79
2022/01/19 21:48:59;;;;;;;62.97;27.60;;;-2.70;99.90;;;;;;5049099;28;20078;-79
2022/01/19 21:51:24;;;;;;;72.70;30.52;;;-2.60;99.90;;;;;;5049738;28;20048;-80
2022/01/19 21:53:50;;;;;;;65.03;28.58;;;-2.60;99.90;;;;;;5066823;28;20099;-80
2022/01/19 21:56:16;;;;;;;74.88;28.80;;;-2.60;99.90;;;;;;5071542;28;20029;-79
2022/01/19 21:58:46;;;;;;;68.72;29.98;;;-2.50;99.90;;;;;;5072623;28;20099;-80
2022/01/19 22:01:12;;;;;;;74.38;31.40;;;-2.50;99.90;;;;;;5072540;28;20371;-80
2022/01/19 22:03:39;;;;;;;68.78;27.63;;;-2.50;99.90;;;;;;5054928;28;20024;-81
2022/01/19 22:06:05;;;;;;;65.60;27.63;;;-2.40;99.90;;;;;;5073117;28;20033;-80
2022/01/19 22:08:32;;;;;;;61.67;27.77;;;-2.40;99.90;;;;;;5071826;28;20040;-79
2022/01/19 22:10:58;;;;;;;62.92;27.55;;;-2.40;99.90;;;;;;5054439;28;20078;-79
2022/01/19 22:13:23;;;;;;;61.58;27.83;;;-2.50;99.90;;;;;;5072773;28;20024;-80
2022/01/19 22:15:49;;;;;;;57.92;24.13;;;-2.50;99.90;;;;;;5054813;28;20398;-79
2022/01/19 22:18:15;;;;;;;53.28;23.60;;;-2.50;99.90;;;;;;5072677;28;20482;-80
2022/01/19 22:20:41;;;;;;;48.88;22.70;;;-2.40;99.90;;;;;;5054175;28;20075;-81
2022/01/19 22:23:06;;;;;;;56.83;26.00;;;-2.30;99.90;;;;;;5054125;28;20024;-80